createdAt,value
2023-03-31T00:02:13.869Z,94723.72
2023-03-31T00:04:46.126Z,94737.66
2023-03-31T00:07:16.733Z,94727.53
2023-03-31T00:09:46.035Z,94729.25
2023-03-31T00:12:14.276Z,94730.84
2023-03-31T00:14:41.754Z,94734.81
2023-03-31T00:17:09.420Z,94727.56
2023-03-31T00:19:36.457Z,94726.25
2023-03-31T00:22:05.560Z,94728.22
2023-03-31T00:24:33.248Z,94729.09
2023-03-31T00:27:04.193Z,94706.03
2023-03-31T00:29:31.340Z,94713.44
2023-03-31T00:31:59.991Z,94718.81
2023-03-31T00:34:27.286Z,94717.19
2023-03-31T00:36:56.221Z,94710.59
2023-03-31T00:39:25.173Z,94706.34
2023-03-31T00:41:51.565Z,94699.81
2023-03-31T00:44:24.527Z,94698.13
2023-03-31T00:47:02.676Z,94695.78
2023-03-31T00:49:33.640Z,94686.25
2023-03-31T00:52:06.110Z,94681.88
2023-03-31T00:54:35.958Z,94692.00
2023-03-31T00:57:06.696Z,94681.84
2023-03-31T00:59:38.487Z,94689.28
2023-03-31T01:02:05.195Z,94688.06
2023-03-31T01:04:35.620Z,94692.22
2023-03-31T01:07:30.330Z,94700.47
2023-03-31T01:10:03.692Z,94692.38
2023-03-31T01:12:32.635Z,94704.50
2023-03-31T01:14:59.934Z,94704.31
2023-03-31T01:17:30.296Z,94704.44
2023-03-31T01:20:07.352Z,94699.63
2023-03-31T01:22:37.794Z,94699.63
2023-03-31T01:25:39.048Z,94674.13
2023-03-31T01:28:12.710Z,94651.81
2023-03-31T01:31:17.101Z,94642.75
2023-03-31T01:34:00.160Z,94635.16
2023-03-31T01:36:32.890Z,94631.50
2023-03-31T01:39:37.190Z,94618.56
2023-03-31T01:42:12.498Z,94619.34
2023-03-31T01:44:46.610Z,94610.41
2023-03-31T01:47:22.751Z,94621.41
2023-03-31T01:50:04.395Z,94617.50
2023-03-31T01:52:45.914Z,94615.13
2023-03-31T01:55:16.685Z,94595.06
2023-03-31T01:57:53.709Z,94591.03
2023-03-31T02:00:30.311Z,94580.59
2023-03-31T02:03:01.880Z,94574.88
2023-03-31T02:05:41.787Z,94564.31
2023-03-31T02:08:13.688Z,94554.78
2023-03-31T02:10:43.866Z,94563.50
2023-03-31T02:13:13.292Z,94554.22
2023-03-31T02:15:43.830Z,94544.66
2023-03-31T02:18:17.825Z,94539.19
2023-03-31T02:20:48.957Z,94541.00
2023-03-31T02:23:19.959Z,94548.47
2023-03-31T02:25:52.409Z,94546.63
2023-03-31T02:28:25.406Z,94558.66
2023-03-31T02:31:33.150Z,94571.41
2023-03-31T02:34:00.122Z,94570.38
2023-03-31T02:36:26.554Z,94589.06
2023-03-31T02:39:05.799Z,94597.81
2023-03-31T02:41:32.774Z,94593.00
2023-03-31T02:43:59.170Z,94598.06
2023-03-31T02:46:27.236Z,94596.88
2023-03-31T02:48:56.928Z,94597.81
2023-03-31T02:52:00.318Z,94596.44
2023-03-31T02:54:43.925Z,94601.16
2023-03-31T02:57:28.630Z,94602.41
2023-03-31T03:00:09.827Z,94601.84
2023-03-31T03:02:47.263Z,94606.75
2023-03-31T03:05:28.909Z,94611.47
2023-03-31T03:08:07.501Z,94607.69
2023-03-31T03:11:04.291Z,94610.56
2023-03-31T03:13:43.122Z,94609.50
2023-03-31T03:16:21.612Z,94605.03
2023-03-31T03:19:07.026Z,94597.13
2023-03-31T03:21:33.705Z,94560.06
2023-03-31T03:24:01.499Z,94552.59
2023-03-31T03:26:28.489Z,94552.13
2023-03-31T03:28:56.490Z,94514.47
2023-03-31T03:31:25.955Z,94494.47
2023-03-31T03:33:53.560Z,94489.88
2023-03-31T03:36:20.562Z,94483.44
2023-03-31T03:38:46.910Z,94489.53
2023-03-31T03:41:13.847Z,94482.06
2023-03-31T03:43:40.198Z,94482.91
2023-03-31T03:46:06.677Z,94479.72
2023-03-31T03:48:33.742Z,94480.97
2023-03-31T03:51:01.184Z,94476.81
2023-03-31T03:53:27.679Z,94472.59
2023-03-31T03:55:54.425Z,94480.28
2023-03-31T03:58:21.034Z,94481.44
2023-03-31T04:00:47.990Z,94488.34
2023-03-31T04:03:15.482Z,94482.00
2023-03-31T04:05:42.334Z,94475.13
2023-03-31T04:08:09.181Z,94486.50
2023-03-31T04:10:35.934Z,94495.34
2023-03-31T04:13:02.301Z,94476.41
2023-03-31T04:15:28.999Z,94484.56
2023-03-31T04:17:58.132Z,94484.22
2023-03-31T04:20:27.617Z,94477.81
2023-03-31T04:22:54.974Z,94477.66
2023-03-31T04:25:22.674Z,94475.28
2023-03-31T04:27:54.488Z,94433.25
2023-03-31T04:30:31.174Z,94440.97
2023-03-31T04:33:04.104Z,94447.41
2023-03-31T04:35:50.423Z,94434.78
2023-03-31T04:38:22.458Z,94422.84
2023-03-31T04:40:51.777Z,94393.28
2023-03-31T04:43:20.589Z,94400.06
2023-03-31T04:45:47.251Z,94390.41
2023-03-31T04:48:13.609Z,94377.91
2023-03-31T04:50:40.718Z,94355.88
2023-03-31T04:53:07.357Z,94342.72
2023-03-31T04:55:34.300Z,94323.22
2023-03-31T04:58:01.406Z,94323.28
2023-03-31T05:00:28.843Z,94319.72
2023-03-31T05:02:55.662Z,94315.44
2023-03-31T05:05:22.518Z,94104.47
2023-03-31T05:07:48.879Z,94136.13
2023-03-31T05:10:15.378Z,94133.88
2023-03-31T05:12:42.242Z,94130.25
2023-03-31T05:15:09.120Z,94125.78
2023-03-31T05:17:36.626Z,94114.09
2023-03-31T05:20:07.259Z,94120.88
2023-03-31T05:22:35.612Z,94117.97
2023-03-31T05:25:02.842Z,94113.34
2023-03-31T05:27:29.622Z,94091.63
2023-03-31T05:29:56.021Z,94082.00
2023-03-31T05:32:22.345Z,94080.97
2023-03-31T05:34:52.102Z,94060.19
2023-03-31T05:37:20.354Z,94072.56
2023-03-31T05:39:46.667Z,94074.53
2023-03-31T05:42:13.417Z,94074.53
2023-03-31T05:44:39.776Z,94080.28
2023-03-31T05:47:06.514Z,94083.47
2023-03-31T05:49:33.016Z,94081.94
2023-03-31T05:51:59.735Z,94103.22
2023-03-31T05:54:27.144Z,94106.94
2023-03-31T05:56:54.011Z,94121.41
2023-03-31T06:01:47.282Z,94143.88
2023-03-31T06:04:13.680Z,94160.34
2023-03-31T06:06:40.022Z,94141.81
2023-03-31T06:09:06.795Z,94142.56
2023-03-31T06:11:33.480Z,94125.25
2023-03-31T06:13:59.850Z,94126.78
2023-03-31T06:16:26.325Z,94113.88
2023-03-31T06:18:53.847Z,94136.88
2023-03-31T06:21:21.556Z,94142.56
2023-03-31T06:23:48.281Z,94145.06
2023-03-31T06:26:18.498Z,94143.56
2023-03-31T06:28:46.077Z,94160.50
2023-03-31T06:31:15.490Z,94156.59
2023-03-31T06:33:43.662Z,94152.75
2023-03-31T06:36:12.748Z,94157.78
2023-03-31T06:38:39.406Z,94140.66
2023-03-31T06:41:08.607Z,94125.25
2023-03-31T06:43:35.390Z,94121.28
2023-03-31T06:46:01.844Z,94106.22
2023-03-31T06:48:28.692Z,94101.00
2023-03-31T06:50:58.729Z,94089.63
2023-03-31T06:53:25.250Z,94094.31
2023-03-31T06:55:53.254Z,94101.56
2023-03-31T06:58:19.707Z,94102.03
2023-03-31T07:00:46.195Z,94092.28
2023-03-31T07:03:14.607Z,94073.59
2023-03-31T07:05:41.608Z,94070.03
2023-03-31T07:08:07.962Z,94073.75
2023-03-31T07:10:34.674Z,94040.03
2023-03-31T07:15:28.527Z,94017.91
2023-03-31T07:18:03.174Z,94008.25
2023-03-31T07:20:30.981Z,93997.59
2023-03-31T07:22:57.478Z,94005.69
2023-03-31T07:25:24.697Z,93989.56
2023-03-31T07:27:51.015Z,93971.75
2023-03-31T07:30:19.610Z,93976.28
2023-03-31T07:32:48.188Z,93951.00
2023-03-31T07:35:14.706Z,93943.53
2023-03-31T07:37:43.349Z,93945.91
2023-03-31T07:40:13.551Z,93957.34
2023-03-31T07:42:40.018Z,93997.44
2023-03-31T07:45:07.656Z,94026.59
2023-03-31T07:47:34.467Z,94046.78
2023-03-31T07:50:01.077Z,94103.06
2023-03-31T07:52:27.541Z,94176.22
2023-03-31T07:54:54.692Z,94187.53
2023-03-31T07:57:21.119Z,94200.78
2023-03-31T07:59:47.630Z,94214.53
2023-03-31T08:02:19.833Z,94196.59
2023-03-31T08:04:47.195Z,94125.13
2023-03-31T08:07:15.393Z,94060.06
2023-03-31T08:09:45.140Z,93997.59
2023-03-31T08:12:11.722Z,94003.19
2023-03-31T08:14:41.283Z,93992.53
2023-03-31T08:17:11.781Z,93940.72
2023-03-31T08:19:38.210Z,93888.84
2023-03-31T08:22:04.524Z,93821.75
2023-03-31T08:24:31.866Z,93789.41
2023-03-31T08:26:58.429Z,93772.03
2023-03-31T08:29:24.824Z,93793.22
2023-03-31T08:31:51.753Z,93760.19
2023-03-31T08:34:18.152Z,93724.97
2023-03-31T08:36:44.466Z,93710.13
2023-03-31T08:39:11.286Z,93688.41
2023-03-31T08:42:16.193Z,93661.69
2023-03-31T08:44:50.057Z,93662.88
2023-03-31T08:47:22.207Z,93660.81
2023-03-31T08:49:59.377Z,93674.06
2023-03-31T08:52:37.581Z,93673.53
2023-03-31T08:55:11.282Z,93665.88
2023-03-31T08:57:52.340Z,93660.06
2023-03-31T09:00:19.918Z,93658.19
2023-03-31T09:02:55.480Z,93706.56
2023-03-31T09:05:59.676Z,93737.53
2023-03-31T09:08:42.318Z,93782.31
2023-03-31T09:11:14.058Z,93832.59
2023-03-31T09:13:55.840Z,93908.16
2023-03-31T09:16:28.564Z,93968.44
2023-03-31T09:19:00.511Z,94087.31
2023-03-31T09:21:40.404Z,94140.06
2023-03-31T09:24:14.778Z,94162.31
2023-03-31T09:26:46.900Z,94186.28
2023-03-31T09:29:18.614Z,94254.19
2023-03-31T09:31:46.797Z,94298.59
2023-03-31T09:34:26.897Z,94311.41
2023-03-31T09:36:53.252Z,94365.56
2023-03-31T09:39:19.699Z,94401.38
2023-03-31T09:41:49.893Z,94486.09
2023-03-31T09:44:27.144Z,94488.25
2023-03-31T09:46:55.480Z,94520.88
2023-03-31T09:49:26.068Z,94518.06
2023-03-31T09:52:05.415Z,94525.75
2023-03-31T09:54:38.250Z,94526.47
2023-03-31T09:57:15.190Z,94553.63
2023-03-31T09:59:43.897Z,94533.09
2023-03-31T10:02:34.624Z,94563.50
2023-03-31T10:05:01.616Z,94555.00
2023-03-31T10:07:28.244Z,94565.47
2023-03-31T10:09:56.564Z,94562.19
2023-03-31T10:12:26.530Z,94543.41
2023-03-31T10:14:54.805Z,94575.91
2023-03-31T10:17:24.333Z,94580.16
2023-03-31T10:20:00.791Z,94594.19
2023-03-31T10:22:30.400Z,94590.34
2023-03-31T10:25:14.850Z,94588.19
2023-03-31T10:27:44.426Z,94584.97
2023-03-31T10:30:13.008Z,94579.03
2023-03-31T10:32:43.432Z,94591.41
2023-03-31T10:35:29.854Z,94564.91
2023-03-31T10:38:00.076Z,94569.72
2023-03-31T10:40:29.515Z,94592.84
2023-03-31T10:43:40.762Z,94588.63
2023-03-31T10:46:08.179Z,94595.72
2023-03-31T10:48:40.679Z,94600.25
2023-03-31T10:51:14.800Z,94603.88
2023-03-31T10:53:43.921Z,94598.41
2023-03-31T10:56:37.644Z,94602.50
2023-03-31T10:59:31.584Z,94602.25
2023-03-31T11:02:03.043Z,94610.50
2023-03-31T11:04:35.965Z,94598.00
2023-03-31T11:07:23.148Z,94589.47
2023-03-31T11:10:15.057Z,94590.63
2023-03-31T11:12:53.914Z,94595.59
2023-03-31T11:15:43.185Z,94603.75
2023-03-31T11:18:34.015Z,94604.69
2023-03-31T11:21:23.168Z,94608.09
2023-03-31T11:24:01.767Z,94599.41
2023-03-31T11:26:48.609Z,94598.41
2023-03-31T11:30:03.896Z,94604.22
2023-03-31T11:32:57.594Z,94602.88
2023-03-31T11:35:45.341Z,94593.13
2023-03-31T11:38:33.802Z,94595.41
2023-03-31T11:41:19.653Z,94581.06
2023-03-31T11:43:51.037Z,94584.94
2023-03-31T11:46:25.476Z,94593.50
2023-03-31T11:48:59.620Z,94592.75
2023-03-31T11:51:31.486Z,94618.53
2023-03-31T11:54:01.478Z,94613.16
2023-03-31T11:56:36.304Z,94605.53
2023-03-31T11:59:04.713Z,94594.84
2023-03-31T12:01:41.966Z,94598.56
2023-03-31T12:04:30.424Z,94579.94
2023-03-31T12:07:02.874Z,94588.16
2023-03-31T12:09:51.358Z,94650.34
2023-03-31T12:12:29.605Z,94705.41
2023-03-31T12:15:01.772Z,94739.97
2023-03-31T12:17:29.456Z,94752.41
2023-03-31T12:20:10.933Z,94756.41
2023-03-31T12:22:45.299Z,94770.06
2023-03-31T12:25:20.756Z,94773.53
2023-03-31T12:27:49.873Z,94770.50
2023-03-31T12:30:39.082Z,94776.16
2023-03-31T12:33:14.232Z,94799.53
2023-03-31T12:35:59.761Z,94773.63
2023-03-31T12:38:51.358Z,94755.28
2023-03-31T12:41:35.316Z,94742.22
2023-03-31T12:44:16.685Z,94756.16
2023-03-31T12:47:08.014Z,94779.03
2023-03-31T12:49:50.111Z,94804.75
2023-03-31T12:52:17.270Z,94782.75
2023-03-31T12:55:05.143Z,94784.25
2023-03-31T12:57:33.587Z,94769.19
2023-03-31T13:00:16.968Z,94768.44
2023-03-31T13:02:44.037Z,94781.28
2023-03-31T13:05:38.661Z,94775.94
2023-03-31T13:08:07.963Z,94765.16
2023-03-31T13:10:58.064Z,94771.66
2023-03-31T13:13:27.342Z,94759.59
2023-03-31T13:15:56.640Z,94760.69
2023-03-31T13:18:23.846Z,94729.19
2023-03-31T13:21:01.208Z,94747.84
2023-03-31T13:23:30.967Z,94728.09
2023-03-31T13:25:58.825Z,94736.88
2023-03-31T13:28:40.412Z,94766.81
2023-03-31T13:31:11.876Z,94744.97
2023-03-31T13:33:58.469Z,94734.78
2023-03-31T13:36:33.894Z,94721.72
2023-03-31T13:39:30.523Z,94729.50
2023-03-31T13:42:17.656Z,94741.25
2023-03-31T13:45:04.804Z,94726.78
2023-03-31T13:47:46.133Z,94748.66
2023-03-31T13:50:39.199Z,94737.50
2023-03-31T13:53:24.142Z,94718.84
2023-03-31T13:56:09.971Z,94734.03
2023-03-31T13:58:56.848Z,94715.63
2023-03-31T14:01:54.129Z,94730.50
2023-03-31T14:04:51.504Z,94726.41
2023-03-31T14:07:23.068Z,94745.06
2023-03-31T14:09:53.858Z,94738.94
2023-03-31T14:12:31.086Z,94735.50
2023-03-31T14:14:57.680Z,94743.75
2023-03-31T14:17:29.135Z,94743.19
2023-03-31T14:20:21.539Z,94736.19
2023-03-31T14:22:57.894Z,94736.22
2023-03-31T14:25:55.516Z,94740.53
2023-03-31T14:28:34.997Z,94745.44
2023-03-31T14:31:11.446Z,94733.72
2023-03-31T14:33:43.850Z,94734.03
2023-03-31T14:36:39.969Z,94719.91
2023-03-31T14:39:10.493Z,94717.16
2023-03-31T14:41:37.973Z,94726.00
2023-03-31T14:44:06.939Z,94764.13
2023-03-31T14:46:38.334Z,94790.13
2023-03-31T14:49:37.232Z,94836.31
2023-03-31T14:52:18.294Z,94876.19
2023-03-31T14:54:48.501Z,94897.84
2023-03-31T14:57:21.558Z,94927.47
2023-03-31T14:59:51.904Z,94968.84
2023-03-31T15:02:27.014Z,94969.91
2023-03-31T15:04:55.023Z,94981.06
2023-03-31T15:07:22.924Z,94952.44
2023-03-31T15:09:50.889Z,94947.16
2023-03-31T15:12:21.759Z,94960.66
2023-03-31T15:14:51.204Z,94980.22
2023-03-31T15:17:41.167Z,94980.88
2023-03-31T15:20:25.989Z,95005.22
2023-03-31T15:22:52.896Z,95006.72
2023-03-31T15:25:19.721Z,95021.34
2023-03-31T15:28:08.202Z,95021.19
2023-03-31T15:30:35.597Z,95015.38
2023-03-31T15:33:17.989Z,95024.31
2023-03-31T15:35:46.712Z,95019.41
2023-03-31T15:38:18.635Z,95004.13
2023-03-31T15:40:53.390Z,94989.00
2023-03-31T15:43:48.205Z,94984.53
2023-03-31T15:46:45.819Z,94961.50
2023-03-31T15:49:23.702Z,94958.97
2023-03-31T15:51:52.133Z,94956.69
2023-03-31T15:54:39.542Z,94955.00
2023-03-31T15:57:08.633Z,94957.50
2023-03-31T16:02:23.955Z,94972.91
2023-03-31T16:04:54.417Z,94979.44
2023-03-31T16:07:28.890Z,94969.78
2023-03-31T16:10:06.186Z,94973.38
2023-03-31T16:12:48.790Z,94973.38
2023-03-31T16:15:24.044Z,94970.16
2023-03-31T16:18:12.893Z,94965.66
2023-03-31T16:20:45.877Z,94955.97
2023-03-31T16:23:18.862Z,94947.91
2023-03-31T16:25:45.790Z,94956.06
2023-03-31T16:28:19.765Z,94954.81
2023-03-31T16:30:46.760Z,94963.25
2023-03-31T16:33:17.494Z,94977.84
2023-03-31T16:35:50.886Z,94997.44
2023-03-31T16:38:18.227Z,95000.31
2023-03-31T16:40:46.810Z,95014.16
2023-03-31T16:43:22.869Z,94997.91
2023-03-31T16:45:51.563Z,95006.34
2023-03-31T16:48:19.550Z,94988.75
2023-03-31T16:50:49.013Z,94991.97
2023-03-31T16:53:18.755Z,95004.41
2023-03-31T16:55:45.561Z,95007.19
2023-03-31T16:58:12.316Z,95004.53
2023-03-31T17:00:40.447Z,95007.75
2023-03-31T17:03:08.697Z,95005.69
2023-03-31T17:05:39.959Z,95003.41
2023-03-31T17:08:06.513Z,95002.22
2023-03-31T17:10:33.001Z,95008.03
2023-03-31T17:13:00.005Z,95015.88
2023-03-31T17:15:26.593Z,95017.41
2023-03-31T17:17:53.046Z,95038.81
2023-03-31T17:20:19.999Z,95050.22
2023-03-31T17:22:46.823Z,95052.97
2023-03-31T17:25:13.475Z,95063.69
2023-03-31T17:27:40.150Z,95082.91
2023-03-31T17:30:08.385Z,95083.34
2023-03-31T17:32:34.760Z,95093.63
2023-03-31T17:35:02.594Z,95103.28
2023-03-31T17:37:29.041Z,95111.09
2023-03-31T17:39:55.524Z,95128.72
2023-03-31T17:42:23.715Z,95137.00
2023-03-31T17:44:51.558Z,95134.84
2023-03-31T17:47:20.470Z,95125.88
2023-03-31T17:49:47.225Z,95121.50
2023-03-31T17:52:13.557Z,95107.22
2023-03-31T17:54:40.323Z,95114.59
2023-03-31T17:57:07.074Z,95107.91
2023-03-31T17:59:33.420Z,95106.88
2023-03-31T18:02:00.922Z,95115.25
2023-03-31T18:04:27.891Z,95125.03
2023-03-31T18:06:54.836Z,95112.81
2023-03-31T18:09:21.951Z,95115.88
2023-03-31T18:11:48.368Z,95124.47
2023-03-31T18:14:14.686Z,95120.78
2023-03-31T18:16:41.590Z,95127.34
2023-03-31T18:19:08.316Z,95135.38
2023-03-31T18:21:35.303Z,95126.97
2023-03-31T18:24:01.614Z,95146.31
2023-03-31T18:26:28.377Z,95165.13
2023-03-31T18:28:54.760Z,95167.63
2023-03-31T18:31:26.693Z,95183.19
2023-03-31T18:33:55.290Z,95228.09
2023-03-31T18:36:23.257Z,95258.09
2023-03-31T18:38:51.339Z,95278.78
2023-03-31T18:41:19.509Z,95291.91
2023-03-31T18:43:47.592Z,95302.25
2023-03-31T18:46:14.355Z,95305.47
2023-03-31T18:48:42.209Z,95286.31
2023-03-31T18:51:09.435Z,95277.38
2023-03-31T18:53:35.746Z,95275.56
2023-03-31T18:56:02.117Z,95268.34
2023-03-31T18:58:30.332Z,95265.91
2023-03-31T19:00:58.052Z,95257.84
2023-03-31T19:03:26.803Z,95265.63
2023-03-31T19:06:01.489Z,95262.47
2023-03-31T19:08:29.676Z,95270.59
2023-03-31T19:11:10.552Z,95280.06
2023-03-31T19:13:38.664Z,95282.50
2023-03-31T19:16:05.523Z,95280.16
2023-03-31T19:18:31.882Z,95272.81
2023-03-31T19:20:59.720Z,95271.63
2023-03-31T19:23:26.605Z,95272.88
2023-03-31T19:25:54.750Z,95269.63
2023-03-31T19:28:23.271Z,95272.47
2023-03-31T19:30:51.670Z,95277.41
2023-03-31T19:33:20.060Z,95271.88
2023-03-31T19:35:47.595Z,95269.25
2023-03-31T19:38:15.111Z,95260.31
2023-03-31T19:40:43.944Z,95259.09
2023-03-31T19:43:37.018Z,95257.34
2023-03-31T19:46:04.139Z,95250.22
2023-03-31T19:48:33.469Z,95246.59
2023-03-31T19:51:03.910Z,95255.13
2023-03-31T19:53:33.798Z,95258.38
2023-03-31T19:56:14.871Z,95251.53
2023-03-31T19:58:42.274Z,95249.91
2023-03-31T20:01:17.468Z,95245.84
2023-03-31T20:03:45.219Z,95249.38
2023-03-31T20:06:14.237Z,95255.06
2023-03-31T20:08:42.420Z,95253.72
2023-03-31T20:11:11.273Z,95259.19
2023-03-31T20:13:38.413Z,95259.59
2023-03-31T20:16:07.860Z,95272.78
2023-03-31T20:18:36.606Z,95248.19
2023-03-31T20:21:09.191Z,95261.81
2023-03-31T20:23:40.096Z,95251.91
2023-03-31T20:26:09.836Z,95265.91
2023-03-31T20:28:37.869Z,95265.69
2023-03-31T20:31:19.330Z,95264.09
2023-03-31T20:33:46.417Z,95271.03
2023-03-31T20:36:18.656Z,95270.44
2023-03-31T20:38:48.648Z,95264.09
2023-03-31T20:41:15.703Z,95273.56
2023-03-31T20:43:42.082Z,95260.53
2023-03-31T20:46:09.656Z,95248.72
2023-03-31T20:48:39.619Z,95244.03
2023-03-31T20:51:08.179Z,95242.19
2023-03-31T20:53:42.322Z,95243.84
2023-03-31T20:56:13.480Z,95231.69
2023-03-31T20:58:41.855Z,95228.97
2023-03-31T21:01:13.207Z,95220.06
2023-03-31T21:03:40.186Z,95213.41
2023-03-31T21:06:11.531Z,95213.44
2023-03-31T21:08:39.369Z,95211.03
2023-03-31T21:11:06.141Z,95208.97
2023-03-31T21:13:32.957Z,95199.59
2023-03-31T21:16:00.491Z,95193.06
2023-03-31T21:18:28.531Z,95209.97
2023-03-31T21:20:57.477Z,95215.84
2023-03-31T21:23:25.718Z,95224.00
2023-03-31T21:25:54.593Z,95205.69
2023-03-31T21:28:23.821Z,95215.44
2023-03-31T21:30:51.486Z,95231.69
2023-03-31T21:33:18.535Z,95222.34
2023-03-31T21:35:45.109Z,95231.09
2023-03-31T21:38:12.300Z,95226.63
2023-03-31T21:40:38.730Z,95237.38
2023-03-31T21:43:05.462Z,95244.31
2023-03-31T21:45:32.016Z,95225.16
2023-03-31T21:47:58.892Z,95240.25
2023-03-31T21:50:25.477Z,95250.50
2023-03-31T21:52:52.614Z,95259.28
2023-03-31T21:55:18.973Z,95269.69
2023-03-31T21:57:45.629Z,95276.59
2023-03-31T22:00:15.870Z,95278.59
2023-03-31T22:02:43.044Z,95277.34
2023-03-31T22:05:10.013Z,95284.47
2023-03-31T22:07:37.804Z,95278.78
2023-03-31T22:10:05.218Z,95280.00
2023-03-31T22:12:31.555Z,95276.19
2023-03-31T22:14:59.244Z,95285.09
2023-03-31T22:17:26.488Z,95258.25
2023-03-31T22:19:52.795Z,95264.81
2023-03-31T22:22:19.932Z,95264.41
2023-03-31T22:24:46.330Z,95255.50
2023-03-31T22:27:12.684Z,95257.16
2023-03-31T22:29:40.090Z,95251.28
2023-03-31T22:32:06.829Z,95249.06
2023-03-31T22:34:33.232Z,95250.25
2023-03-31T22:37:00.128Z,95251.94
2023-03-31T22:39:26.637Z,95248.69
2023-03-31T22:41:52.948Z,95252.34
2023-03-31T22:44:19.679Z,95259.44
2023-03-31T22:46:46.470Z,95256.50
2023-03-31T22:49:14.586Z,95255.03
2023-03-31T22:51:43.073Z,95253.44
2023-03-31T22:54:13.066Z,95244.31
2023-03-31T22:56:39.794Z,95248.81
2023-03-31T22:59:07.084Z,95245.56
2023-03-31T23:01:33.523Z,95252.31
2023-03-31T23:04:03.197Z,95255.53
2023-03-31T23:06:32.740Z,95263.22
2023-03-31T23:09:01.855Z,95265.25
2023-03-31T23:11:28.233Z,95255.31
2023-03-31T23:13:54.989Z,95262.97
2023-03-31T23:16:24.310Z,95265.00
2023-03-31T23:18:52.923Z,95253.81
2023-03-31T23:21:22.831Z,95252.66
2023-03-31T23:23:57.040Z,95245.22
2023-03-31T23:26:25.770Z,95265.13
2023-03-31T23:28:52.866Z,95274.09
2023-03-31T23:31:22.831Z,95275.09
2023-03-31T23:33:49.990Z,95275.72
2023-03-31T23:36:17.950Z,95289.50
2023-03-31T23:38:45.374Z,95292.56
2023-03-31T23:41:12.879Z,95284.19
2023-03-31T23:43:39.623Z,95308.16
2023-03-31T23:46:07.100Z,95294.97
2023-03-31T23:48:35.529Z,95282.63
2023-03-31T23:51:02.125Z,95290.31
2023-03-31T23:53:29.240Z,95277.53
2023-03-31T23:55:58.960Z,95266.41
2023-03-31T23:58:26.448Z,95272.28
